createdAt,value
2019-06-08T00:00:47.268Z,25.08
2019-06-08T00:03:16.683Z,23.80
2019-06-08T00:05:45.445Z,23.47
2019-06-08T00:08:14.804Z,23.60
2019-06-08T00:10:43.436Z,23.62
2019-06-08T00:13:13.139Z,23.57
2019-06-08T00:15:41.842Z,22.02
2019-06-08T00:18:10.527Z,23.22
2019-06-08T00:20:39.453Z,23.45
2019-06-08T00:23:07.966Z,23.15
2019-06-08T00:25:36.686Z,21.70
2019-06-08T00:28:05.489Z,21.37
2019-06-08T00:30:35.275Z,22.17
2019-06-08T00:33:04.278Z,22.13
2019-06-08T00:35:32.850Z,22.93
2019-06-08T00:38:01.583Z,22.15
2019-06-08T00:40:30.342Z,22.13
2019-06-08T00:42:58.851Z,21.87
2019-06-08T00:45:27.404Z,22.93
2019-06-08T00:47:56.052Z,23.80
2019-06-08T00:50:25.155Z,23.45
2019-06-08T00:52:53.822Z,24.25
2019-06-08T00:55:23.662Z,24.80
2019-06-08T00:57:52.780Z,24.43
2019-06-08T01:00:22.586Z,25.20
2019-06-08T01:02:51.276Z,23.95
2019-06-08T01:05:20.017Z,23.18
2019-06-08T01:07:48.754Z,25.35
2019-06-08T01:10:19.150Z,23.47
2019-06-08T01:12:47.763Z,23.60
2019-06-08T01:15:16.895Z,22.65
2019-06-08T01:18:01.335Z,21.05
2019-06-08T01:20:16.416Z,23.20
2019-06-08T01:22:45.037Z,19.73
2019-06-08T01:25:14.049Z,19.92
2019-06-08T01:27:42.769Z,19.17
2019-06-08T01:30:11.789Z,18.85
2019-06-08T01:32:40.540Z,19.35
2019-06-08T01:35:09.250Z,18.02
2019-06-08T01:37:37.987Z,19.40
2019-06-08T01:40:07.734Z,19.23
2019-06-08T01:42:36.449Z,17.85
2019-06-08T01:45:07.192Z,17.40
2019-06-08T01:47:35.834Z,17.95
2019-06-08T01:50:05.632Z,17.55
2019-06-08T01:52:34.829Z,16.15
2019-06-08T01:55:04.379Z,16.77
2019-06-08T01:57:33.831Z,16.40
2019-06-08T02:00:28.761Z,16.85
2019-06-08T02:02:34.219Z,17.40
2019-06-08T02:05:03.228Z,17.20
2019-06-08T02:07:32.425Z,16.60
2019-06-08T02:10:01.152Z,13.88
2019-06-08T02:12:31.065Z,13.88
2019-06-08T02:15:00.154Z,15.05
2019-06-08T02:17:29.354Z,14.47
2019-06-08T02:19:58.001Z,8.88
2019-06-08T02:22:26.795Z,6.65
2019-06-08T02:24:55.224Z,4.00
2019-06-08T02:27:23.727Z,4.03
2019-06-08T02:29:52.210Z,3.67
2019-06-08T02:32:20.679Z,3.80
2019-06-08T02:34:49.436Z,3.15
2019-06-08T02:37:18.150Z,3.45
2019-06-08T02:39:46.706Z,3.35
2019-06-08T02:42:15.259Z,3.45
2019-06-08T02:44:43.767Z,3.42
2019-06-08T02:47:16.178Z,3.00
2019-06-08T02:49:42.508Z,3.02
2019-06-08T02:52:11.535Z,2.75
2019-06-08T02:54:41.357Z,2.52
2019-06-08T02:57:11.434Z,2.12
2019-06-08T02:59:41.443Z,2.15
2019-06-08T03:02:11.764Z,2.20
2019-06-08T03:04:41.318Z,1.90
2019-06-08T03:07:10.921Z,2.02
2019-06-08T03:09:41.094Z,1.50
2019-06-08T03:12:09.708Z,1.60
2019-06-08T03:14:41.857Z,1.40
2019-06-08T03:17:09.961Z,1.50
2019-06-08T03:19:39.962Z,1.65
2019-06-08T03:22:10.909Z,1.22
2019-06-08T03:24:38.893Z,1.30
2019-06-08T03:27:07.344Z,1.50
2019-06-08T03:29:37.264Z,1.20
2019-06-08T03:32:06.056Z,1.20
2019-06-08T03:34:35.707Z,1.30
2019-06-08T03:37:04.806Z,1.22
2019-06-08T03:39:35.247Z,1.10
2019-06-08T03:42:03.618Z,1.32
2019-06-08T03:44:32.114Z,1.42
2019-06-08T03:47:00.595Z,1.27
2019-06-08T03:49:40.989Z,1.25
2019-06-08T03:51:59.373Z,1.40
2019-06-08T03:54:27.875Z,1.40
2019-06-08T03:56:56.461Z,1.30
2019-06-08T03:59:24.969Z,1.30
2019-06-08T04:01:53.507Z,1.07
2019-06-08T04:04:22.002Z,1.30
2019-06-08T04:06:50.482Z,1.42
2019-06-08T04:09:18.995Z,1.40
2019-06-08T04:11:47.461Z,1.05
2019-06-08T04:14:15.973Z,1.20
2019-06-08T04:16:45.056Z,1.07
2019-06-08T04:19:14.666Z,1.20
2019-06-08T04:21:44.317Z,1.20
2019-06-08T04:24:12.892Z,1.10
2019-06-08T04:26:42.936Z,1.10
2019-06-08T04:29:11.602Z,1.40
2019-06-08T04:31:41.776Z,1.12
2019-06-08T04:34:10.437Z,1.22
2019-06-08T04:36:39.055Z,1.10
2019-06-08T04:39:08.430Z,1.25
2019-06-08T04:41:38.507Z,1.65
2019-06-08T04:44:07.138Z,1.00
2019-06-08T04:46:35.640Z,1.10
2019-06-08T04:49:04.238Z,1.22
2019-06-08T04:51:32.754Z,1.17
2019-06-08T04:54:01.247Z,1.15
2019-06-08T04:56:29.749Z,1.10
2019-06-08T04:58:58.225Z,1.17
2019-06-08T05:01:26.730Z,1.52
2019-06-08T05:03:55.207Z,1.55
2019-06-08T05:06:23.717Z,1.30
2019-06-08T05:08:52.187Z,1.25
2019-06-08T05:11:20.804Z,1.10
2019-06-08T05:13:49.852Z,1.10
2019-06-08T05:16:18.523Z,1.20
2019-06-08T05:18:47.389Z,1.20
2019-06-08T05:21:16.022Z,1.20
2019-06-08T05:23:45.590Z,1.00
2019-06-08T05:26:14.505Z,1.00
2019-06-08T05:28:43.222Z,0.90
2019-06-08T05:31:11.818Z,1.42
2019-06-08T05:33:41.318Z,1.37
2019-06-08T05:36:09.934Z,2.67
2019-06-08T05:38:39.459Z,1.22
2019-06-08T05:41:07.988Z,1.42
2019-06-08T05:43:36.569Z,1.20
2019-06-08T05:46:05.372Z,1.30
2019-06-08T05:48:33.863Z,1.30
2019-06-08T05:51:04.190Z,1.30
2019-06-08T05:53:32.748Z,1.10
2019-06-08T05:56:01.255Z,1.10
2019-06-08T05:58:29.722Z,1.30
2019-06-08T06:00:58.305Z,1.10
2019-06-08T06:03:26.787Z,1.30
2019-06-08T06:05:55.280Z,1.55
2019-06-08T06:08:23.750Z,1.25
2019-06-08T06:10:52.261Z,1.02
2019-06-08T06:13:20.740Z,1.10
2019-06-08T06:15:49.254Z,0.98
2019-06-08T06:18:17.702Z,1.20
2019-06-08T06:20:47.293Z,1.20
2019-06-08T06:23:15.822Z,1.00
2019-06-08T06:25:45.383Z,1.00
2019-06-08T06:28:13.970Z,1.00
2019-06-08T06:30:44.116Z,1.00
2019-06-08T06:33:12.720Z,1.12
2019-06-08T06:35:41.637Z,1.15
2019-06-08T06:38:10.269Z,1.20
2019-06-08T06:40:38.827Z,1.20
2019-06-08T06:43:07.326Z,1.05
2019-06-08T06:45:35.805Z,0.90
2019-06-08T06:48:04.391Z,1.20
2019-06-08T06:50:32.852Z,1.07
2019-06-08T06:53:01.348Z,1.02
2019-06-08T06:55:29.833Z,1.17
2019-06-08T06:57:58.326Z,1.10
2019-06-08T07:00:32.140Z,1.20
2019-06-08T07:03:01.883Z,1.12
2019-06-08T07:05:30.421Z,1.12
2019-06-08T07:07:58.927Z,1.30
2019-06-08T07:10:27.397Z,1.10
2019-06-08T07:12:55.898Z,1.22
2019-06-08T07:15:26.795Z,0.93
2019-06-08T07:17:55.828Z,1.20
2019-06-08T07:20:24.366Z,1.30
2019-06-08T07:22:52.871Z,1.37
2019-06-08T07:25:21.338Z,1.20
2019-06-08T07:27:50.523Z,0.90
2019-06-08T07:30:19.146Z,1.10
2019-06-08T07:32:49.141Z,1.07
2019-06-08T07:35:17.810Z,0.95
2019-06-08T07:37:47.281Z,1.02
2019-06-08T07:40:16.576Z,1.17
2019-06-08T07:42:45.082Z,0.98
2019-06-08T07:45:13.696Z,0.85
2019-06-08T07:47:42.294Z,1.15
2019-06-08T07:50:11.167Z,0.93
2019-06-08T07:52:39.663Z,0.98
2019-06-08T07:55:08.952Z,1.17
2019-06-08T07:57:37.455Z,0.80
2019-06-08T08:00:09.613Z,0.93
2019-06-08T08:02:38.341Z,1.17
2019-06-08T08:05:07.884Z,0.75
2019-06-08T08:07:36.722Z,0.98
2019-06-08T08:10:09.049Z,0.82
2019-06-08T08:12:38.096Z,0.80
2019-06-08T08:15:10.537Z,0.90
2019-06-08T08:17:39.492Z,1.37
2019-06-08T08:20:08.724Z,0.85
2019-06-08T08:22:38.174Z,0.85
2019-06-08T08:25:10.508Z,0.80
2019-06-08T08:27:39.112Z,0.88
2019-06-08T08:30:08.541Z,1.07
2019-06-08T08:32:37.984Z,0.80
2019-06-08T08:35:08.848Z,0.90
2019-06-08T08:37:38.179Z,0.80
2019-06-08T08:40:08.363Z,0.85
2019-06-08T08:42:38.659Z,0.90
2019-06-08T08:45:08.643Z,0.80
2019-06-08T08:47:38.705Z,0.90
2019-06-08T08:50:08.980Z,1.00
2019-06-08T08:52:40.708Z,0.90
2019-06-08T08:55:08.490Z,0.80
2019-06-08T08:57:41.170Z,1.00
2019-06-08T09:00:09.238Z,0.85
2019-06-08T09:02:38.034Z,0.90
2019-06-08T09:05:08.628Z,0.70
2019-06-08T09:07:38.465Z,1.00
2019-06-08T09:10:11.273Z,0.82
2019-06-08T09:12:39.517Z,0.80
2019-06-08T09:15:08.753Z,0.70
2019-06-08T09:17:38.841Z,0.80
2019-06-08T09:20:13.099Z,0.90
2019-06-08T09:22:52.319Z,0.80
2019-06-08T09:25:09.074Z,0.90
2019-06-08T09:27:38.251Z,1.10
2019-06-08T09:30:08.410Z,0.70
2019-06-08T09:32:38.213Z,1.20
2019-06-08T09:35:09.080Z,0.80
2019-06-08T09:37:37.621Z,0.90
2019-06-08T09:40:06.676Z,0.93
2019-06-08T09:42:35.227Z,0.85
2019-06-08T09:45:08.617Z,1.05
2019-06-08T09:47:38.114Z,0.80
2019-06-08T09:50:09.241Z,1.00
2019-06-08T09:52:40.937Z,0.75
2019-06-08T09:55:09.807Z,0.90
2019-06-08T09:57:38.642Z,1.02
2019-06-08T10:00:17.577Z,1.32
2019-06-08T10:02:38.973Z,0.90
2019-06-08T10:05:07.855Z,1.00
2019-06-08T10:07:38.943Z,0.90
2019-06-08T10:10:09.620Z,1.00
2019-06-08T10:12:37.784Z,1.10
2019-06-08T10:15:08.200Z,1.07
2019-06-08T10:17:37.719Z,2.85
2019-06-08T10:20:10.062Z,1.32
2019-06-08T10:22:37.750Z,0.90
2019-06-08T10:25:10.751Z,1.25
2019-06-08T10:27:38.640Z,1.30
2019-06-08T10:30:10.031Z,1.10
2019-06-08T10:32:39.207Z,1.10
2019-06-08T10:35:10.425Z,1.10
2019-06-08T10:37:38.737Z,1.05
2019-06-08T10:40:09.973Z,0.93
2019-06-08T10:42:40.167Z,1.20
2019-06-08T10:45:14.629Z,0.93
2019-06-08T10:47:40.596Z,1.00
2019-06-08T10:50:15.081Z,1.10
2019-06-08T10:52:41.073Z,0.90
2019-06-08T10:55:11.982Z,0.85
2019-06-08T10:57:39.974Z,1.00
2019-06-08T11:00:20.123Z,1.12
2019-06-08T11:02:42.995Z,1.10
2019-06-08T11:05:13.916Z,1.12
2019-06-08T11:07:41.888Z,1.00
2019-06-08T11:10:12.495Z,0.93
2019-06-08T11:12:41.123Z,1.15
2019-06-08T11:15:11.752Z,0.95
2019-06-08T11:17:40.223Z,1.10
2019-06-08T11:20:13.024Z,1.05
2019-06-08T11:22:39.068Z,1.10
2019-06-08T11:25:15.468Z,0.95
2019-06-08T11:27:38.872Z,1.27
2019-06-08T11:30:14.307Z,1.10
2019-06-08T11:32:38.354Z,1.10
2019-06-08T11:35:10.712Z,1.27
2019-06-08T11:37:38.675Z,0.98
2019-06-08T11:40:10.982Z,1.15
2019-06-08T11:42:38.876Z,1.02
2019-06-08T11:45:11.147Z,1.20
2019-06-08T11:47:39.567Z,1.20
2019-06-08T11:50:12.933Z,1.75
2019-06-08T11:52:39.811Z,1.10
2019-06-08T11:55:11.305Z,0.90
2019-06-08T11:57:40.429Z,1.10
2019-06-08T12:00:22.363Z,1.07
2019-06-08T12:02:41.421Z,1.00
2019-06-08T12:05:12.450Z,1.10
2019-06-08T12:07:40.653Z,0.98
2019-06-08T12:10:11.336Z,0.90
2019-06-08T12:12:39.415Z,2.02
2019-06-08T12:15:11.285Z,1.07
2019-06-08T12:17:38.631Z,1.05
2019-06-08T12:20:08.622Z,0.95
2019-06-08T12:22:37.765Z,1.10
2019-06-08T12:25:08.238Z,1.00
2019-06-08T12:27:40.137Z,1.67
2019-06-08T12:30:13.579Z,1.22
2019-06-08T12:32:37.432Z,1.30
2019-06-08T12:35:08.157Z,1.10
2019-06-08T12:37:38.730Z,1.02
2019-06-08T12:40:10.218Z,1.45
2019-06-08T12:42:38.279Z,1.07
2019-06-08T12:45:07.481Z,0.93
2019-06-08T12:47:38.090Z,1.20
2019-06-08T12:50:08.916Z,1.07
2019-06-08T12:52:39.134Z,1.35
2019-06-08T12:55:14.421Z,1.07
2019-06-08T12:57:38.490Z,1.10
2019-06-08T13:00:09.407Z,1.00
2019-06-08T13:02:38.390Z,1.40
2019-06-08T13:05:11.591Z,1.10
2019-06-08T13:07:38.695Z,1.10
2019-06-08T13:10:10.980Z,1.40
2019-06-08T13:12:40.914Z,1.30
2019-06-08T13:15:11.257Z,1.32
2019-06-08T13:17:40.124Z,1.40
2019-06-08T13:20:12.710Z,1.22
2019-06-08T13:22:41.222Z,1.30
2019-06-08T13:25:21.054Z,1.42
2019-06-08T13:27:39.991Z,1.20
2019-06-08T13:30:09.567Z,1.30
2019-06-08T13:32:40.265Z,1.30
2019-06-08T13:35:10.402Z,1.30
2019-06-08T13:37:39.221Z,1.20
2019-06-08T13:40:08.360Z,1.30
2019-06-08T13:42:38.285Z,1.40
2019-06-08T13:45:08.960Z,1.40
2019-06-08T13:47:40.976Z,1.27
2019-06-08T13:50:10.993Z,1.30
2019-06-08T13:52:40.211Z,1.35
2019-06-08T13:55:08.954Z,1.20
2019-06-08T13:57:38.275Z,1.40
2019-06-08T14:00:09.339Z,1.20
2019-06-08T14:02:39.800Z,1.20
2019-06-08T14:05:08.710Z,1.50
2019-06-08T14:07:38.098Z,1.30
2019-06-08T14:10:08.395Z,1.37
2019-06-08T14:12:38.430Z,1.47
2019-06-08T14:15:08.597Z,1.20
2019-06-08T14:17:37.901Z,1.27
2019-06-08T14:20:08.048Z,1.25
2019-06-08T14:22:38.855Z,1.27
2019-06-08T14:25:10.458Z,1.12
2019-06-08T14:27:37.578Z,1.07
2019-06-08T14:30:08.394Z,1.30
2019-06-08T14:32:38.098Z,1.95
2019-06-08T14:35:08.739Z,1.30
2019-06-08T14:37:38.070Z,1.40
2019-06-08T14:40:08.312Z,1.10
2019-06-08T14:42:38.350Z,1.35
2019-06-08T14:45:11.007Z,1.40
2019-06-08T14:47:39.704Z,1.60
2019-06-08T14:50:08.935Z,1.50
2019-06-08T14:52:38.123Z,1.40
2019-06-08T14:55:07.992Z,1.50
2019-06-08T14:57:37.474Z,1.50
2019-06-08T15:00:12.171Z,1.50
2019-06-08T15:02:38.930Z,1.37
2019-06-08T15:05:07.912Z,1.30
2019-06-08T15:07:38.655Z,1.40
2019-06-08T15:10:09.806Z,1.37
2019-06-08T15:12:38.395Z,1.47
2019-06-08T15:15:08.327Z,1.45
2019-06-08T15:17:38.071Z,1.07
2019-06-08T15:20:08.950Z,1.30
2019-06-08T15:22:38.860Z,1.40
2019-06-08T15:25:11.011Z,1.80
2019-06-08T15:27:38.942Z,1.30
2019-06-08T15:30:07.803Z,1.47
2019-06-08T15:32:38.564Z,1.30
2019-06-08T15:35:08.045Z,1.10
2019-06-08T15:37:37.976Z,1.60
2019-06-08T15:40:08.852Z,4.47
2019-06-08T15:42:37.390Z,1.30
2019-06-08T15:45:08.604Z,1.70
2019-06-08T15:47:40.510Z,1.50
2019-06-08T15:50:08.917Z,12.23
2019-06-08T15:52:38.079Z,1.50
2019-06-08T15:55:10.868Z,1.57
2019-06-08T15:57:40.790Z,1.40
2019-06-08T16:00:10.155Z,1.40
2019-06-08T16:02:38.803Z,1.27
2019-06-08T16:05:07.332Z,1.22
2019-06-08T16:07:35.812Z,1.25
2019-06-08T16:10:06.754Z,1.27
2019-06-08T16:12:35.243Z,1.60
2019-06-08T16:15:05.483Z,1.37
2019-06-08T16:17:35.432Z,1.20
2019-06-08T16:20:05.040Z,1.40
2019-06-08T16:22:33.879Z,1.30
2019-06-08T16:25:02.479Z,1.30
2019-06-08T16:27:32.160Z,1.25
2019-06-08T16:30:08.750Z,1.40
2019-06-08T16:32:31.528Z,1.10
2019-06-08T16:35:00.106Z,1.30
2019-06-08T16:37:29.542Z,1.30
2019-06-08T16:39:58.085Z,1.10
2019-06-08T16:42:27.861Z,1.50
2019-06-08T16:44:56.419Z,1.35
2019-06-08T16:47:25.093Z,1.37
2019-06-08T16:49:53.568Z,1.32
2019-06-08T16:52:22.075Z,1.32
2019-06-08T16:54:50.548Z,1.57
2019-06-08T16:57:19.040Z,1.50
2019-06-08T16:59:47.510Z,1.20
2019-06-08T17:02:17.080Z,1.42
2019-06-08T17:04:45.671Z,1.70
2019-06-08T17:07:14.167Z,2.62
2019-06-08T17:09:42.710Z,1.80
2019-06-08T17:12:11.698Z,1.80
2019-06-08T17:14:40.760Z,1.80
2019-06-08T17:17:09.398Z,1.70
2019-06-08T17:19:38.437Z,1.60
2019-06-08T17:22:07.149Z,1.65
2019-06-08T17:24:36.689Z,1.90
2019-06-08T17:27:05.297Z,1.80
2019-06-08T17:29:34.907Z,1.92
2019-06-08T17:32:03.554Z,1.60
2019-06-08T17:34:32.020Z,1.65
2019-06-08T17:37:00.527Z,1.80
2019-06-08T17:39:29.602Z,2.00
2019-06-08T17:41:58.160Z,1.80
2019-06-08T17:44:26.641Z,1.82
2019-06-08T17:46:55.232Z,1.62
2019-06-08T17:49:23.716Z,2.00
2019-06-08T17:51:52.222Z,1.60
2019-06-08T17:54:20.694Z,1.60
2019-06-08T17:56:49.191Z,2.00
2019-06-08T17:59:17.669Z,1.72
2019-06-08T18:01:46.735Z,1.95
2019-06-08T18:04:17.394Z,1.37
2019-06-08T18:06:47.372Z,1.87
2019-06-08T18:09:17.539Z,1.55
2019-06-08T18:11:48.025Z,1.60
2019-06-08T18:14:18.115Z,1.75
2019-06-08T18:16:47.987Z,1.60
2019-06-08T18:19:19.576Z,1.45
2019-06-08T18:21:48.072Z,1.62
2019-06-08T18:24:17.512Z,1.90
2019-06-08T18:26:47.473Z,1.50
2019-06-08T18:29:18.034Z,1.52
2019-06-08T18:31:48.066Z,1.50
2019-06-08T18:34:17.787Z,1.50
2019-06-08T18:36:47.950Z,1.55
2019-06-08T18:39:18.055Z,1.50
2019-06-08T18:41:48.424Z,1.40
2019-06-08T18:44:17.480Z,1.72
2019-06-08T18:46:48.186Z,1.60
2019-06-08T18:49:17.870Z,1.72
2019-06-08T18:51:49.080Z,1.57
2019-06-08T18:54:18.804Z,1.60
2019-06-08T18:56:48.825Z,1.67
2019-06-08T18:59:18.494Z,1.98
2019-06-08T19:01:49.490Z,2.12
2019-06-08T19:04:17.650Z,1.98
2019-06-08T19:06:48.778Z,1.87
2019-06-08T19:09:17.825Z,2.05
2019-06-08T19:11:48.416Z,2.08
2019-06-08T19:14:17.895Z,1.90
2019-06-08T19:16:51.429Z,1.95
2019-06-08T19:19:16.932Z,1.92
2019-06-08T19:21:46.017Z,2.22
2019-06-08T19:24:18.051Z,2.33
2019-06-08T19:26:47.397Z,2.20
2019-06-08T19:29:19.130Z,2.10
2019-06-08T19:31:49.704Z,2.05
2019-06-08T19:34:18.120Z,2.52
2019-06-08T19:36:52.140Z,6.00
2019-06-08T19:39:18.016Z,5.70
2019-06-08T19:41:49.231Z,3.87
2019-06-08T19:44:18.296Z,4.60
2019-06-08T19:46:51.999Z,5.45
2019-06-08T19:49:17.443Z,5.78
2019-06-08T19:51:49.365Z,5.55
2019-06-08T19:54:18.286Z,5.33
2019-06-08T19:56:49.374Z,4.20
2019-06-08T19:59:18.246Z,3.60
2019-06-08T20:01:51.361Z,3.00
2019-06-08T20:04:18.245Z,2.08
2019-06-08T20:06:48.095Z,2.10
2019-06-08T20:09:17.519Z,2.15
2019-06-08T20:11:52.469Z,1.90
2019-06-08T20:14:16.213Z,2.20
2019-06-08T20:16:44.794Z,2.50
2019-06-08T20:19:13.266Z,1.70
2019-06-08T20:21:42.831Z,1.90
2019-06-08T20:24:11.420Z,1.92
2019-06-08T20:26:39.886Z,2.60
2019-06-08T20:29:13.529Z,2.17
2019-06-08T20:31:39.117Z,2.40
2019-06-08T20:34:07.763Z,2.55
2019-06-08T20:36:37.526Z,2.25
2019-06-08T20:39:08.346Z,2.45
2019-06-08T20:41:37.693Z,2.40
2019-06-08T20:44:08.480Z,2.45
2019-06-08T20:46:37.763Z,3.00
2019-06-08T20:49:08.391Z,3.37
2019-06-08T20:51:37.515Z,3.60
2019-06-08T20:54:07.940Z,3.20
2019-06-08T20:56:37.190Z,3.10
2019-06-08T20:59:08.036Z,3.00
2019-06-08T21:01:36.030Z,2.37
2019-06-08T21:04:04.668Z,2.92
2019-06-08T21:06:33.142Z,2.65
2019-06-08T21:09:01.620Z,2.40
2019-06-08T21:11:30.214Z,2.43
2019-06-08T21:13:58.678Z,2.70
2019-06-08T21:16:27.664Z,2.60
2019-06-08T21:18:58.048Z,3.20
2019-06-08T21:21:28.351Z,2.97
2019-06-08T21:24:00.964Z,2.47
2019-06-08T21:26:27.292Z,2.80
2019-06-08T21:29:00.135Z,3.00
2019-06-08T21:31:28.401Z,3.10
2019-06-08T21:34:00.472Z,3.17
2019-06-08T21:36:26.476Z,3.45
2019-06-08T21:38:59.891Z,3.10
2019-06-08T21:41:27.732Z,3.00
2019-06-08T21:43:59.594Z,2.70
2019-06-08T21:46:27.528Z,2.33
2019-06-08T21:48:56.895Z,2.40
2019-06-08T21:51:26.342Z,2.65
2019-06-08T21:53:54.809Z,2.70
2019-06-08T21:56:23.313Z,2.40
2019-06-08T21:58:53.045Z,2.30
2019-06-08T22:01:22.691Z,2.60
2019-06-08T22:03:51.727Z,2.60
2019-06-08T22:06:20.338Z,2.10
2019-06-08T22:08:49.915Z,2.50
2019-06-08T22:11:18.596Z,2.40
2019-06-08T22:13:47.629Z,2.47
2019-06-08T22:16:16.377Z,2.30
2019-06-08T22:18:47.329Z,2.50
2019-06-08T22:21:17.919Z,2.33
2019-06-08T22:23:47.478Z,2.77
2019-06-08T22:26:17.639Z,2.40
2019-06-08T22:28:48.047Z,2.57
2019-06-08T22:31:17.115Z,2.50
2019-06-08T22:33:48.169Z,2.70
2019-06-08T22:36:16.955Z,2.50
2019-06-08T22:38:47.603Z,2.40
2019-06-08T22:41:17.346Z,2.50
2019-06-08T22:43:48.001Z,2.40
2019-06-08T22:46:17.802Z,2.70
2019-06-08T22:48:47.802Z,2.33
2019-06-08T22:51:18.748Z,2.43
2019-06-08T22:53:47.800Z,2.77
2019-06-08T22:56:18.280Z,2.87
2019-06-08T22:58:47.931Z,3.03
2019-06-08T23:01:18.363Z,2.73
2019-06-08T23:03:47.644Z,2.83
2019-06-08T23:06:17.711Z,2.80
2019-06-08T23:08:48.038Z,3.00
2019-06-08T23:11:18.000Z,3.00
2019-06-08T23:13:47.313Z,3.00
2019-06-08T23:16:18.008Z,2.73
2019-06-08T23:18:47.784Z,2.43
2019-06-08T23:21:18.059Z,2.70
2019-06-08T23:23:47.749Z,2.90
2019-06-08T23:26:18.330Z,2.83
2019-06-08T23:28:47.144Z,2.93
2019-06-08T23:31:24.198Z,2.93
2019-06-08T23:33:48.280Z,2.37
2019-06-08T23:36:45.523Z,2.60
2019-06-08T23:38:48.127Z,2.70
2019-06-08T23:41:17.716Z,2.70
2019-06-08T23:43:48.107Z,2.60
2019-06-08T23:46:18.083Z,2.30
2019-06-08T23:48:48.442Z,2.53
2019-06-08T23:51:18.112Z,2.70
2019-06-08T23:53:47.787Z,2.77
2019-06-08T23:56:18.355Z,2.63
2019-06-08T23:58:48.267Z,3.00
